To NAV CANADA Home Page Login to a new session Search on AWWS site Disclaimer Vers la page française équivalente Tips FAQ What's new on the site To the Forecasts and Observations / NOTAM section To "File a Flight Plan" website Publications and other links Update of the User's profile FIC Telephone Numbers My Weather Data Folder Route Weather Data Regional Weather Data Local Weather Data To the Forecasts and Observations / NOTAM section
Request Generated 10/19/2018 at 16:18:13 UTC . Weather information available at that time is displayed.

METAR/TAF

MONTREAL/ST-HUBERT/QC    (show WxCam)

METAR CYHU 191600Z AUTO 23019G26KT 9SM CLR 13/04 A2990 RMK SLP128=
METAR CYHU 191500Z AUTO 23014G23KT 9SM CLR 11/04 A2994 RMK SLP140=
METAR CYHU 191400Z AUTO 22015G21KT 9SM CLR 09/03 A2997 RMK SLP153=

TAF AMD CYHU 191216Z 1912/2012 23012G22KT P6SM BKN220
FM191400 23015G25KT P6SM FEW025
FM191700 23020G30KT P6SM SCT030
FM192300 23015G25KT P6SM FEW025 OVC150
FM200400 22015G25KT P6SM OVC100
FM200700 21015G25KT P6SM -RA OVC030
FM201100 21017G27KT 3SM -RA BR OVC020
RMK FCST BASED ON AUTO OBS. NXT FCST BY 191800Z=
Your time UTC time
Weather data provided by Environment Canada and NAV CANADA